sensor_id;sensor_type;location;lat;lon;timestamp;P1;durP1;ratioP1;P2;durP2;ratioP2
72920;SDS011;61064;51.654;5.476;2023-07-31T00:01:11;21.90;;;6.90;;
72920;SDS011;61064;51.654;5.476;2023-07-31T00:03:37;23.43;;;6.33;;
72920;SDS011;61064;51.654;5.476;2023-07-31T00:06:02;21.73;;;6.27;;
72920;SDS011;61064;51.654;5.476;2023-07-31T00:08:28;22.23;;;6.00;;
72920;SDS011;61064;51.654;5.476;2023-07-31T00:10:53;20.63;;;5.82;;
72920;SDS011;61064;51.654;5.476;2023-07-31T00:13:18;27.63;;;6.07;;
72920;SDS011;61064;51.654;5.476;2023-07-31T00:15:44;23.03;;;5.57;;
72920;SDS011;61064;51.654;5.476;2023-07-31T00:18:09;20.70;;;5.50;;
72920;SDS011;61064;51.654;5.476;2023-07-31T00:20:34;20.30;;;5.50;;
72920;SDS011;61064;51.654;5.476;2023-07-31T00:23:00;21.95;;;5.72;;
72920;SDS011;61064;51.654;5.476;2023-07-31T00:25:25;21.33;;;5.60;;
72920;SDS011;61064;51.654;5.476;2023-07-31T00:27:51;22.90;;;6.03;;
72920;SDS011;61064;51.654;5.476;2023-07-31T00:30:16;18.53;;;5.60;;
72920;SDS011;61064;51.654;5.476;2023-07-31T00:32:41;18.23;;;5.67;;
72920;SDS011;61064;51.654;5.476;2023-07-31T00:35:07;21.87;;;5.20;;
72920;SDS011;61064;51.654;5.476;2023-07-31T00:37:32;21.50;;;4.97;;
72920;SDS011;61064;51.654;5.476;2023-07-31T00:39:58;16.77;;;5.07;;
72920;SDS011;61064;51.654;5.476;2023-07-31T00:42:24;17.57;;;5.13;;
72920;SDS011;61064;51.654;5.476;2023-07-31T00:44:49;22.60;;;5.18;;
72920;SDS011;61064;51.654;5.476;2023-07-31T00:47:15;21.37;;;4.97;;
72920;SDS011;61064;51.654;5.476;2023-07-31T00:49:40;22.40;;;5.30;;
72920;SDS011;61064;51.654;5.476;2023-07-31T00:52:06;17.30;;;5.00;;
72920;SDS011;61064;51.654;5.476;2023-07-31T00:54:32;18.27;;;5.30;;
72920;SDS011;61064;51.654;5.476;2023-07-31T00:56:57;20.90;;;5.00;;
72920;SDS011;61064;51.654;5.476;2023-07-31T00:59:23;17.58;;;5.00;;
72920;SDS011;61064;51.654;5.476;2023-07-31T01:01:49;19.27;;;5.00;;
72920;SDS011;61064;51.654;5.476;2023-07-31T01:04:15;23.47;;;5.20;;
72920;SDS011;61064;51.654;5.476;2023-07-31T01:12:05;16.00;;;4.80;;
72920;SDS011;61064;51.654;5.476;2023-07-31T01:14:32;17.67;;;4.87;;
72920;SDS011;61064;51.654;5.476;2023-07-31T01:16:57;19.10;;;4.30;;
72920;SDS011;61064;51.654;5.476;2023-07-31T01:19:25;17.45;;;4.35;;
72920;SDS011;61064;51.654;5.476;2023-07-31T01:27:34;18.45;;;4.60;;
72920;SDS011;61064;51.654;5.476;2023-07-31T01:30:08;17.55;;;4.60;;
72920;SDS011;61064;51.654;5.476;2023-07-31T01:32:43;18.10;;;4.47;;
72920;SDS011;61064;51.654;5.476;2023-07-31T01:35:12;15.60;;;4.40;;
72920;SDS011;61064;51.654;5.476;2023-07-31T01:37:38;19.75;;;4.15;;
72920;SDS011;61064;51.654;5.476;2023-07-31T01:40:06;13.37;;;3.70;;
72920;SDS011;61064;51.654;5.476;2023-07-31T01:42:32;17.65;;;4.30;;
72920;SDS011;61064;51.654;5.476;2023-07-31T01:44:57;16.30;;;4.03;;
72920;SDS011;61064;51.654;5.476;2023-07-31T01:47:23;16.02;;;3.88;;
72920;SDS011;61064;51.654;5.476;2023-07-31T01:49:48;13.57;;;3.83;;
72920;SDS011;61064;51.654;5.476;2023-07-31T01:52:14;18.50;;;3.90;;
72920;SDS011;61064;51.654;5.476;2023-07-31T01:54:39;15.37;;;3.60;;
72920;SDS011;61064;51.654;5.476;2023-07-31T01:57:05;15.35;;;3.50;;
72920;SDS011;61064;51.654;5.476;2023-07-31T01:59:30;18.47;;;4.13;;
72920;SDS011;61064;51.654;5.476;2023-07-31T02:01:56;15.70;;;3.80;;
72920;SDS011;61064;51.654;5.476;2023-07-31T02:04:21;16.13;;;3.50;;
72920;SDS011;61064;51.654;5.476;2023-07-31T02:06:46;16.02;;;3.92;;
72920;SDS011;61064;51.654;5.476;2023-07-31T02:09:12;17.10;;;3.90;;
72920;SDS011;61064;51.654;5.476;2023-07-31T02:11:38;20.08;;;4.30;;
72920;SDS011;61064;51.654;5.476;2023-07-31T02:14:04;15.70;;;3.27;;
72920;SDS011;61064;51.654;5.476;2023-07-31T02:16:29;16.60;;;3.90;;
72920;SDS011;61064;51.654;5.476;2023-07-31T02:18:54;16.67;;;3.50;;
72920;SDS011;61064;51.654;5.476;2023-07-31T02:21:20;16.73;;;3.60;;
72920;SDS011;61064;51.654;5.476;2023-07-31T02:23:45;16.87;;;3.67;;
72920;SDS011;61064;51.654;5.476;2023-07-31T02:26:11;12.05;;;3.05;;
72920;SDS011;61064;51.654;5.476;2023-07-31T02:28:36;13.63;;;3.57;;
72920;SDS011;61064;51.654;5.476;2023-07-31T02:31:02;12.95;;;3.42;;
72920;SDS011;61064;51.654;5.476;2023-07-31T02:33:27;18.40;;;3.23;;
72920;SDS011;61064;51.654;5.476;2023-07-31T02:35:53;15.27;;;3.67;;
72920;SDS011;61064;51.654;5.476;2023-07-31T02:38:18;17.20;;;3.80;;
72920;SDS011;61064;51.654;5.476;2023-07-31T02:40:44;16.93;;;3.53;;
72920;SDS011;61064;51.654;5.476;2023-07-31T02:43:09;14.15;;;3.30;;
72920;SDS011;61064;51.654;5.476;2023-07-31T02:45:34;16.10;;;3.70;;
72920;SDS011;61064;51.654;5.476;2023-07-31T02:48:00;11.63;;;3.23;;
72920;SDS011;61064;51.654;5.476;2023-07-31T02:50:25;14.95;;;3.47;;
72920;SDS011;61064;51.654;5.476;2023-07-31T02:52:52;16.33;;;3.78;;
72920;SDS011;61064;51.654;5.476;2023-07-31T02:55:18;16.83;;;3.50;;
72920;SDS011;61064;51.654;5.476;2023-07-31T02:57:43;15.60;;;3.30;;
72920;SDS011;61064;51.654;5.476;2023-07-31T03:00:09;15.97;;;3.57;;
72920;SDS011;61064;51.654;5.476;2023-07-31T03:02:34;18.60;;;4.07;;
72920;SDS011;61064;51.654;5.476;2023-07-31T03:05:00;12.67;;;3.27;;
72920;SDS011;61064;51.654;5.476;2023-07-31T03:07:25;17.05;;;3.60;;
72920;SDS011;61064;51.654;5.476;2023-07-31T03:09:51;16.43;;;3.60;;
72920;SDS011;61064;51.654;5.476;2023-07-31T03:12:16;17.93;;;3.47;;
72920;SDS011;61064;51.654;5.476;2023-07-31T03:14:42;17.33;;;3.77;;
72920;SDS011;61064;51.654;5.476;2023-07-31T03:17:07;18.13;;;3.60;;
72920;SDS011;61064;51.654;5.476;2023-07-31T03:19:32;15.60;;;3.60;;
72920;SDS011;61064;51.654;5.476;2023-07-31T03:21:58;13.17;;;3.47;;
72920;SDS011;61064;51.654;5.476;2023-07-31T03:24:24;17.48;;;3.90;;
72920;SDS011;61064;51.654;5.476;2023-07-31T03:26:50;17.55;;;3.95;;
72920;SDS011;61064;51.654;5.476;2023-07-31T03:29:15;15.23;;;3.47;;
72920;SDS011;61064;51.654;5.476;2023-07-31T03:31:41;13.03;;;3.20;;
72920;SDS011;61064;51.654;5.476;2023-07-31T03:34:06;15.83;;;3.87;;
72920;SDS011;61064;51.654;5.476;2023-07-31T03:36:31;20.57;;;3.90;;
72920;SDS011;61064;51.654;5.476;2023-07-31T03:38:57;18.02;;;3.50;;
72920;SDS011;61064;51.654;5.476;2023-07-31T03:41:22;18.00;;;3.83;;
72920;SDS011;61064;51.654;5.476;2023-07-31T03:43:49;16.47;;;3.60;;
72920;SDS011;61064;51.654;5.476;2023-07-31T03:46:16;17.92;;;3.85;;
72920;SDS011;61064;51.654;5.476;2023-07-31T03:48:42;12.47;;;3.23;;
72920;SDS011;61064;51.654;5.476;2023-07-31T03:51:07;14.30;;;3.37;;
72920;SDS011;61064;51.654;5.476;2023-07-31T03:53:32;18.03;;;4.07;;
72920;SDS011;61064;51.654;5.476;2023-07-31T03:55:58;15.90;;;3.77;;
72920;SDS011;61064;51.654;5.476;2023-07-31T03:58:23;15.50;;;3.50;;
72920;SDS011;61064;51.654;5.476;2023-07-31T04:00:48;16.33;;;3.50;;
72920;SDS011;61064;51.654;5.476;2023-07-31T04:03:14;14.17;;;3.40;;
72920;SDS011;61064;51.654;5.476;2023-07-31T04:05:39;16.43;;;3.60;;
72920;SDS011;61064;51.654;5.476;2023-07-31T04:08:05;15.68;;;4.03;;
72920;SDS011;61064;51.654;5.476;2023-07-31T04:10:30;16.00;;;3.30;;
72920;SDS011;61064;51.654;5.476;2023-07-31T04:12:58;13.95;;;3.10;;
72920;SDS011;61064;51.654;5.476;2023-07-31T04:15:24;14.93;;;3.33;;
72920;SDS011;61064;51.654;5.476;2023-07-31T04:17:49;16.42;;;3.03;;
72920;SDS011;61064;51.654;5.476;2023-07-31T04:20:14;13.30;;;3.50;;
72920;SDS011;61064;51.654;5.476;2023-07-31T04:22:40;13.60;;;3.20;;
72920;SDS011;61064;51.654;5.476;2023-07-31T04:25:05;15.03;;;3.53;;
72920;SDS011;61064;51.654;5.476;2023-07-31T04:27:34;14.73;;;3.33;;
72920;SDS011;61064;51.654;5.476;2023-07-31T04:30:02;15.20;;;3.15;;
72920;SDS011;61064;51.654;5.476;2023-07-31T04:32:30;16.35;;;3.42;;
72920;SDS011;61064;51.654;5.476;2023-07-31T04:34:56;18.27;;;3.07;;
72920;SDS011;61064;51.654;5.476;2023-07-31T04:37:21;15.50;;;3.33;;
72920;SDS011;61064;51.654;5.476;2023-07-31T04:39:47;13.93;;;3.13;;
72920;SDS011;61064;51.654;5.476;2023-07-31T04:42:12;13.53;;;3.20;;
72920;SDS011;61064;51.654;5.476;2023-07-31T04:44:38;14.57;;;3.30;;
72920;SDS011;61064;51.654;5.476;2023-07-31T04:47:03;18.70;;;3.20;;
72920;SDS011;61064;51.654;5.476;2023-07-31T04:49:29;13.35;;;3.08;;
72920;SDS011;61064;51.654;5.476;2023-07-31T04:51:54;15.53;;;3.53;;
72920;SDS011;61064;51.654;5.476;2023-07-31T04:54:19;16.07;;;3.33;;
72920;SDS011;61064;51.654;5.476;2023-07-31T04:56:45;15.10;;;3.40;;
72920;SDS011;61064;51.654;5.476;2023-07-31T04:59:10;16.83;;;3.50;;
72920;SDS011;61064;51.654;5.476;2023-07-31T05:01:35;19.30;;;3.03;;
72920;SDS011;61064;51.654;5.476;2023-07-31T05:04:01;17.03;;;3.33;;
72920;SDS011;61064;51.654;5.476;2023-07-31T05:06:27;16.63;;;3.10;;
72920;SDS011;61064;51.654;5.476;2023-07-31T05:08:52;14.10;;;3.67;;
72920;SDS011;61064;51.654;5.476;2023-07-31T05:11:18;18.43;;;3.57;;
72920;SDS011;61064;51.654;5.476;2023-07-31T05:13:43;14.03;;;3.30;;
72920;SDS011;61064;51.654;5.476;2023-07-31T05:16:08;13.13;;;3.50;;
72920;SDS011;61064;51.654;5.476;2023-07-31T05:18:34;17.67;;;3.53;;
72920;SDS011;61064;51.654;5.476;2023-07-31T05:20:59;14.87;;;3.50;;
72920;SDS011;61064;51.654;5.476;2023-07-31T05:23:24;15.37;;;3.20;;
72920;SDS011;61064;51.654;5.476;2023-07-31T05:25:50;18.90;;;3.80;;
72920;SDS011;61064;51.654;5.476;2023-07-31T05:28:15;15.00;;;3.40;;
72920;SDS011;61064;51.654;5.476;2023-07-31T05:30:42;15.80;;;4.30;;
72920;SDS011;61064;51.654;5.476;2023-07-31T05:33:07;14.10;;;3.70;;
72920;SDS011;61064;51.654;5.476;2023-07-31T05:35:33;14.33;;;3.43;;
72920;SDS011;61064;51.654;5.476;2023-07-31T05:37:58;12.07;;;3.80;;
72920;SDS011;61064;51.654;5.476;2023-07-31T05:40:23;17.23;;;4.10;;
72920;SDS011;61064;51.654;5.476;2023-07-31T05:42:49;14.43;;;3.60;;
72920;SDS011;61064;51.654;5.476;2023-07-31T05:45:14;16.43;;;3.80;;
72920;SDS011;61064;51.654;5.476;2023-07-31T05:47:40;17.50;;;4.55;;
72920;SDS011;61064;51.654;5.476;2023-07-31T05:50:05;11.60;;;3.30;;
72920;SDS011;61064;51.654;5.476;2023-07-31T05:52:31;12.73;;;3.47;;
72920;SDS011;61064;51.654;5.476;2023-07-31T05:54:56;14.15;;;3.47;;
72920;SDS011;61064;51.654;5.476;2023-07-31T05:57:22;13.90;;;3.57;;
72920;SDS011;61064;51.654;5.476;2023-07-31T05:59:47;14.33;;;3.67;;
72920;SDS011;61064;51.654;5.476;2023-07-31T06:02:13;12.10;;;3.30;;
72920;SDS011;61064;51.654;5.476;2023-07-31T06:04:38;12.20;;;3.43;;
72920;SDS011;61064;51.654;5.476;2023-07-31T06:07:03;10.48;;;3.20;;
72920;SDS011;61064;51.654;5.476;2023-07-31T06:09:29;9.07;;;2.77;;
72920;SDS011;61064;51.654;5.476;2023-07-31T06:11:54;9.97;;;3.30;;
72920;SDS011;61064;51.654;5.476;2023-07-31T06:14:20;10.03;;;2.93;;
72920;SDS011;61064;51.654;5.476;2023-07-31T06:16:45;8.85;;;2.70;;
72920;SDS011;61064;51.654;5.476;2023-07-31T06:19:11;9.90;;;2.93;;
72920;SDS011;61064;51.654;5.476;2023-07-31T06:21:36;8.33;;;2.50;;
72920;SDS011;61064;51.654;5.476;2023-07-31T06:24:03;8.30;;;2.60;;
72920;SDS011;61064;51.654;5.476;2023-07-31T06:26:31;8.85;;;2.40;;
72920;SDS011;61064;51.654;5.476;2023-07-31T06:28:56;7.73;;;2.10;;
72920;SDS011;61064;51.654;5.476;2023-07-31T06:31:22;8.57;;;2.10;;
72920;SDS011;61064;51.654;5.476;2023-07-31T06:33:51;6.75;;;1.90;;
72920;SDS011;61064;51.654;5.476;2023-07-31T06:36:17;7.10;;;1.73;;
72920;SDS011;61064;51.654;5.476;2023-07-31T06:38:43;6.67;;;2.00;;
72920;SDS011;61064;51.654;5.476;2023-07-31T06:41:08;6.53;;;1.80;;
72920;SDS011;61064;51.654;5.476;2023-07-31T06:43:35;6.70;;;1.85;;
72920;SDS011;61064;51.654;5.476;2023-07-31T06:46:04;6.47;;;1.60;;
72920;SDS011;61064;51.654;5.476;2023-07-31T06:48:31;6.28;;;1.60;;
72920;SDS011;61064;51.654;5.476;2023-07-31T06:50:57;6.27;;;1.50;;
72920;SDS011;61064;51.654;5.476;2023-07-31T06:53:22;4.85;;;1.33;;
72920;SDS011;61064;51.654;5.476;2023-07-31T06:55:48;5.47;;;1.40;;
72920;SDS011;61064;51.654;5.476;2023-07-31T06:58:13;6.73;;;1.50;;
72920;SDS011;61064;51.654;5.476;2023-07-31T07:00:38;6.70;;;1.50;;
72920;SDS011;61064;51.654;5.476;2023-07-31T07:03:04;6.23;;;1.70;;
72920;SDS011;61064;51.654;5.476;2023-07-31T07:05:29;5.28;;;1.77;;
72920;SDS011;61064;51.654;5.476;2023-07-31T07:07:55;7.03;;;1.70;;
72920;SDS011;61064;51.654;5.476;2023-07-31T07:10:20;6.73;;;1.80;;
72920;SDS011;61064;51.654;5.476;2023-07-31T07:12:46;6.57;;;1.70;;
72920;SDS011;61064;51.654;5.476;2023-07-31T07:15:11;6.63;;;1.80;;
72920;SDS011;61064;51.654;5.476;2023-07-31T07:17:37;6.37;;;1.70;;
72920;SDS011;61064;51.654;5.476;2023-07-31T07:20:02;5.95;;;1.88;;
72920;SDS011;61064;51.654;5.476;2023-07-31T07:22:28;5.93;;;1.63;;
72920;SDS011;61064;51.654;5.476;2023-07-31T07:24:54;6.45;;;1.92;;
72920;SDS011;61064;51.654;5.476;2023-07-31T07:27:20;6.53;;;2.00;;
72920;SDS011;61064;51.654;5.476;2023-07-31T07:29:46;6.32;;;2.13;;
72920;SDS011;61064;51.654;5.476;2023-07-31T07:32:11;5.97;;;2.07;;
72920;SDS011;61064;51.654;5.476;2023-07-31T07:34:37;6.03;;;1.80;;
72920;SDS011;61064;51.654;5.476;2023-07-31T07:37:03;7.45;;;2.10;;
72920;SDS011;61064;51.654;5.476;2023-07-31T07:39:28;6.13;;;1.80;;
72920;SDS011;61064;51.654;5.476;2023-07-31T07:41:54;6.87;;;1.83;;
72920;SDS011;61064;51.654;5.476;2023-07-31T07:44:19;5.83;;;1.90;;
72920;SDS011;61064;51.654;5.476;2023-07-31T07:46:45;6.40;;;1.98;;
72920;SDS011;61064;51.654;5.476;2023-07-31T07:49:10;7.93;;;2.10;;
72920;SDS011;61064;51.654;5.476;2023-07-31T07:51:36;6.27;;;2.00;;
72920;SDS011;61064;51.654;5.476;2023-07-31T07:54:01;6.85;;;2.13;;
72920;SDS011;61064;51.654;5.476;2023-07-31T07:56:27;6.97;;;2.20;;
72920;SDS011;61064;51.654;5.476;2023-07-31T07:58:53;6.57;;;2.20;;
72920;SDS011;61064;51.654;5.476;2023-07-31T08:01:19;7.38;;;2.30;;
72920;SDS011;61064;51.654;5.476;2023-07-31T08:03:44;8.40;;;2.58;;
72920;SDS011;61064;51.654;5.476;2023-07-31T08:06:10;9.50;;;2.70;;
72920;SDS011;61064;51.654;5.476;2023-07-31T08:08:36;7.53;;;2.50;;
72920;SDS011;61064;51.654;5.476;2023-07-31T08:11:02;7.80;;;2.70;;
72920;SDS011;61064;51.654;5.476;2023-07-31T08:13:27;8.23;;;2.90;;
72920;SDS011;61064;51.654;5.476;2023-07-31T08:15:53;9.30;;;3.00;;
72920;SDS011;61064;51.654;5.476;2023-07-31T08:18:18;7.20;;;2.70;;
72920;SDS011;61064;51.654;5.476;2023-07-31T08:20:44;7.85;;;2.75;;
72920;SDS011;61064;51.654;5.476;2023-07-31T08:23:10;7.07;;;2.93;;
72920;SDS011;61064;51.654;5.476;2023-07-31T08:25:35;8.18;;;2.80;;
72920;SDS011;61064;51.654;5.476;2023-07-31T08:28:02;7.70;;;2.90;;
72920;SDS011;61064;51.654;5.476;2023-07-31T08:30:28;8.53;;;3.03;;
72920;SDS011;61064;51.654;5.476;2023-07-31T08:32:54;9.00;;;2.92;;
72920;SDS011;61064;51.654;5.476;2023-07-31T08:35:19;8.93;;;3.00;;
72920;SDS011;61064;51.654;5.476;2023-07-31T08:37:44;7.50;;;2.80;;
72920;SDS011;61064;51.654;5.476;2023-07-31T08:40:10;7.37;;;3.00;;
72920;SDS011;61064;51.654;5.476;2023-07-31T08:42:45;9.83;;;2.80;;
72920;SDS011;61064;51.654;5.476;2023-07-31T08:45:15;8.60;;;3.17;;
72920;SDS011;61064;51.654;5.476;2023-07-31T08:47:44;6.90;;;3.13;;
72920;SDS011;61064;51.654;5.476;2023-07-31T08:50:16;8.38;;;2.85;;
72920;SDS011;61064;51.654;5.476;2023-07-31T08:52:43;9.77;;;3.53;;
72920;SDS011;61064;51.654;5.476;2023-07-31T08:55:09;10.43;;;3.45;;
72920;SDS011;61064;51.654;5.476;2023-07-31T08:57:35;9.53;;;3.70;;
72920;SDS011;61064;51.654;5.476;2023-07-31T09:00:06;7.90;;;3.30;;
72920;SDS011;61064;51.654;5.476;2023-07-31T09:02:45;10.25;;;3.67;;
72920;SDS011;61064;51.654;5.476;2023-07-31T09:05:13;12.90;;;3.97;;
72920;SDS011;61064;51.654;5.476;2023-07-31T09:07:39;9.45;;;3.65;;
72920;SDS011;61064;51.654;5.476;2023-07-31T09:10:07;9.45;;;4.13;;
72920;SDS011;61064;51.654;5.476;2023-07-31T09:12:32;10.83;;;3.80;;
72920;SDS011;61064;51.654;5.476;2023-07-31T09:14:58;12.68;;;4.25;;
72920;SDS011;61064;51.654;5.476;2023-07-31T09:17:33;10.27;;;4.17;;
72920;SDS011;61064;51.654;5.476;2023-07-31T09:20:15;12.55;;;3.95;;
72920;SDS011;61064;51.654;5.476;2023-07-31T09:22:41;11.50;;;4.50;;
72920;SDS011;61064;51.654;5.476;2023-07-31T09:25:20;10.53;;;4.13;;
72920;SDS011;61064;51.654;5.476;2023-07-31T09:27:51;11.23;;;4.18;;
72920;SDS011;61064;51.654;5.476;2023-07-31T09:30:17;11.27;;;3.95;;
72920;SDS011;61064;51.654;5.476;2023-07-31T09:32:43;12.55;;;4.43;;
72920;SDS011;61064;51.654;5.476;2023-07-31T09:35:52;9.82;;;4.07;;
72920;SDS011;61064;51.654;5.476;2023-07-31T09:38:09;11.23;;;4.20;;
72920;SDS011;61064;51.654;5.476;2023-07-31T09:40:36;13.27;;;4.68;;
72920;SDS011;61064;51.654;5.476;2023-07-31T09:43:07;13.18;;;4.38;;
72920;SDS011;61064;51.654;5.476;2023-07-31T09:45:38;11.73;;;4.07;;
72920;SDS011;61064;51.654;5.476;2023-07-31T09:48:08;11.07;;;3.92;;
72920;SDS011;61064;51.654;5.476;2023-07-31T09:50:47;12.03;;;3.87;;
72920;SDS011;61064;51.654;5.476;2023-07-31T09:53:14;11.18;;;3.92;;
72920;SDS011;61064;51.654;5.476;2023-07-31T09:55:41;10.95;;;4.53;;
72920;SDS011;61064;51.654;5.476;2023-07-31T09:58:08;8.98;;;4.00;;
72920;SDS011;61064;51.654;5.476;2023-07-31T10:00:35;8.55;;;3.67;;
72920;SDS011;61064;51.654;5.476;2023-07-31T10:03:04;9.97;;;3.90;;
72920;SDS011;61064;51.654;5.476;2023-07-31T10:05:38;8.65;;;3.60;;
72920;SDS011;61064;51.654;5.476;2023-07-31T10:08:07;9.35;;;4.10;;
72920;SDS011;61064;51.654;5.476;2023-07-31T10:10:35;9.82;;;3.92;;
72920;SDS011;61064;51.654;5.476;2023-07-31T10:13:02;8.40;;;3.63;;
72920;SDS011;61064;51.654;5.476;2023-07-31T10:15:30;9.40;;;3.60;;
72920;SDS011;61064;51.654;5.476;2023-07-31T10:17:56;11.35;;;3.90;;
72920;SDS011;61064;51.654;5.476;2023-07-31T10:20:23;9.15;;;3.58;;
72920;SDS011;61064;51.654;5.476;2023-07-31T10:22:50;11.00;;;3.47;;
72920;SDS011;61064;51.654;5.476;2023-07-31T10:25:16;11.18;;;3.88;;
72920;SDS011;61064;51.654;5.476;2023-07-31T10:27:44;8.40;;;3.47;;
72920;SDS011;61064;51.654;5.476;2023-07-31T10:30:14;10.77;;;3.65;;
72920;SDS011;61064;51.654;5.476;2023-07-31T10:32:43;8.88;;;3.38;;
72920;SDS011;61064;51.654;5.476;2023-07-31T10:35:10;9.57;;;3.30;;
72920;SDS011;61064;51.654;5.476;2023-07-31T10:40:07;8.73;;;3.20;;
72920;SDS011;61064;51.654;5.476;2023-07-31T10:42:36;11.63;;;3.35;;
72920;SDS011;61064;51.654;5.476;2023-07-31T10:45:05;8.10;;;3.25;;
72920;SDS011;61064;51.654;5.476;2023-07-31T10:47:38;7.55;;;3.17;;
72920;SDS011;61064;51.654;5.476;2023-07-31T10:50:16;10.27;;;3.10;;
72920;SDS011;61064;51.654;5.476;2023-07-31T10:52:46;14.10;;;3.60;;
72920;SDS011;61064;51.654;5.476;2023-07-31T10:55:14;8.98;;;3.08;;
72920;SDS011;61064;51.654;5.476;2023-07-31T10:58:07;9.90;;;3.00;;
72920;SDS011;61064;51.654;5.476;2023-07-31T11:00:40;8.52;;;2.85;;
72920;SDS011;61064;51.654;5.476;2023-07-31T11:03:07;8.60;;;2.85;;
72920;SDS011;61064;51.654;5.476;2023-07-31T11:13:33;7.05;;;2.67;;
72920;SDS011;61064;51.654;5.476;2023-07-31T11:16:04;7.82;;;2.83;;
72920;SDS011;61064;51.654;5.476;2023-07-31T11:18:29;7.30;;;2.70;;
72920;SDS011;61064;51.654;5.476;2023-07-31T11:20:55;8.43;;;2.67;;
72920;SDS011;61064;51.654;5.476;2023-07-31T11:23:21;8.83;;;2.77;;
72920;SDS011;61064;51.654;5.476;2023-07-31T11:25:47;7.97;;;2.63;;
72920;SDS011;61064;51.654;5.476;2023-07-31T11:28:13;8.27;;;3.03;;
72920;SDS011;61064;51.654;5.476;2023-07-31T11:30:41;8.63;;;2.60;;
72920;SDS011;61064;51.654;5.476;2023-07-31T11:33:08;8.40;;;3.00;;
72920;SDS011;61064;51.654;5.476;2023-07-31T11:35:35;9.70;;;2.90;;
72920;SDS011;61064;51.654;5.476;2023-07-31T11:38:06;7.88;;;2.78;;
72920;SDS011;61064;51.654;5.476;2023-07-31T11:40:40;9.18;;;2.83;;
72920;SDS011;61064;51.654;5.476;2023-07-31T11:43:06;8.85;;;2.83;;
72920;SDS011;61064;51.654;5.476;2023-07-31T11:45:32;7.87;;;3.00;;
72920;SDS011;61064;51.654;5.476;2023-07-31T11:47:58;6.70;;;2.60;;
72920;SDS011;61064;51.654;5.476;2023-07-31T11:50:24;8.80;;;3.03;;
72920;SDS011;61064;51.654;5.476;2023-07-31T11:52:57;7.90;;;3.10;;
72920;SDS011;61064;51.654;5.476;2023-07-31T11:55:31;7.57;;;2.78;;
72920;SDS011;61064;51.654;5.476;2023-07-31T11:57:57;9.47;;;3.00;;
72920;SDS011;61064;51.654;5.476;2023-07-31T12:00:23;6.57;;;2.65;;
72920;SDS011;61064;51.654;5.476;2023-07-31T12:02:50;8.75;;;3.20;;
72920;SDS011;61064;51.654;5.476;2023-07-31T12:05:16;7.57;;;2.60;;
72920;SDS011;61064;51.654;5.476;2023-07-31T12:07:43;6.65;;;2.40;;
72920;SDS011;61064;51.654;5.476;2023-07-31T12:10:22;6.63;;;2.42;;
72920;SDS011;61064;51.654;5.476;2023-07-31T12:13:02;7.53;;;2.20;;
72920;SDS011;61064;51.654;5.476;2023-07-31T12:15:35;6.72;;;2.30;;
72920;SDS011;61064;51.654;5.476;2023-07-31T12:18:11;6.72;;;2.67;;
72920;SDS011;61064;51.654;5.476;2023-07-31T12:20:42;7.28;;;2.00;;
72920;SDS011;61064;51.654;5.476;2023-07-31T12:23:18;7.45;;;2.53;;
72920;SDS011;61064;51.654;5.476;2023-07-31T12:26:05;6.47;;;2.40;;
72920;SDS011;61064;51.654;5.476;2023-07-31T12:28:34;7.00;;;2.45;;
72920;SDS011;61064;51.654;5.476;2023-07-31T12:31:05;7.07;;;2.60;;
72920;SDS011;61064;51.654;5.476;2023-07-31T12:33:32;6.13;;;2.28;;
72920;SDS011;61064;51.654;5.476;2023-07-31T12:36:00;7.88;;;2.38;;
72920;SDS011;61064;51.654;5.476;2023-07-31T12:38:27;7.93;;;3.03;;
72920;SDS011;61064;51.654;5.476;2023-07-31T12:40:52;8.30;;;2.30;;
72920;SDS011;61064;51.654;5.476;2023-07-31T12:43:17;7.03;;;2.60;;
72920;SDS011;61064;51.654;5.476;2023-07-31T12:45:43;9.90;;;2.53;;
72920;SDS011;61064;51.654;5.476;2023-07-31T12:48:09;8.83;;;2.50;;
72920;SDS011;61064;51.654;5.476;2023-07-31T12:50:35;8.07;;;2.60;;
72920;SDS011;61064;51.654;5.476;2023-07-31T12:53:04;7.80;;;2.80;;
72920;SDS011;61064;51.654;5.476;2023-07-31T12:55:29;8.02;;;2.67;;
72920;SDS011;61064;51.654;5.476;2023-07-31T12:57:55;7.13;;;2.53;;
72920;SDS011;61064;51.654;5.476;2023-07-31T13:00:24;8.87;;;3.00;;
72920;SDS011;61064;51.654;5.476;2023-07-31T13:02:51;11.07;;;2.90;;
72920;SDS011;61064;51.654;5.476;2023-07-31T13:05:16;8.77;;;3.20;;
72920;SDS011;61064;51.654;5.476;2023-07-31T13:07:42;10.30;;;3.20;;
72920;SDS011;61064;51.654;5.476;2023-07-31T13:10:09;10.65;;;3.45;;
72920;SDS011;61064;51.654;5.476;2023-07-31T13:12:34;8.50;;;3.47;;
72920;SDS011;61064;51.654;5.476;2023-07-31T13:15:00;10.63;;;3.87;;
72920;SDS011;61064;51.654;5.476;2023-07-31T13:17:26;10.43;;;3.70;;
72920;SDS011;61064;51.654;5.476;2023-07-31T13:19:51;10.65;;;3.90;;
72920;SDS011;61064;51.654;5.476;2023-07-31T13:22:17;11.73;;;4.37;;
72920;SDS011;61064;51.654;5.476;2023-07-31T13:24:42;11.33;;;3.80;;
72920;SDS011;61064;51.654;5.476;2023-07-31T13:27:08;9.77;;;3.80;;
72920;SDS011;61064;51.654;5.476;2023-07-31T13:29:33;9.95;;;4.00;;
72920;SDS011;61064;51.654;5.476;2023-07-31T13:31:59;8.63;;;3.60;;
72920;SDS011;61064;51.654;5.476;2023-07-31T13:34:24;10.27;;;3.70;;
72920;SDS011;61064;51.654;5.476;2023-07-31T13:36:49;11.00;;;3.67;;
72920;SDS011;61064;51.654;5.476;2023-07-31T13:39:15;10.80;;;4.10;;
72920;SDS011;61064;51.654;5.476;2023-07-31T13:41:41;12.03;;;3.30;;
72920;SDS011;61064;51.654;5.476;2023-07-31T13:44:06;10.37;;;3.93;;
72920;SDS011;61064;51.654;5.476;2023-07-31T13:46:33;10.93;;;3.60;;
72920;SDS011;61064;51.654;5.476;2023-07-31T13:48:58;11.80;;;3.70;;
72920;SDS011;61064;51.654;5.476;2023-07-31T13:51:26;10.02;;;3.78;;
72920;SDS011;61064;51.654;5.476;2023-07-31T13:53:53;9.65;;;3.50;;
72920;SDS011;61064;51.654;5.476;2023-07-31T13:56:18;10.90;;;3.80;;
72920;SDS011;61064;51.654;5.476;2023-07-31T13:58:44;13.10;;;3.83;;
72920;SDS011;61064;51.654;5.476;2023-07-31T14:01:09;12.73;;;4.33;;
72920;SDS011;61064;51.654;5.476;2023-07-31T14:03:35;12.45;;;4.13;;
72920;SDS011;61064;51.654;5.476;2023-07-31T14:06:00;12.00;;;4.17;;
72920;SDS011;61064;51.654;5.476;2023-07-31T14:08:26;14.67;;;4.43;;
72920;SDS011;61064;51.654;5.476;2023-07-31T14:10:52;13.13;;;4.77;;
72920;SDS011;61064;51.654;5.476;2023-07-31T14:13:17;10.90;;;4.13;;
72920;SDS011;61064;51.654;5.476;2023-07-31T14:15:42;10.67;;;4.73;;
72920;SDS011;61064;51.654;5.476;2023-07-31T14:18:08;11.80;;;4.57;;
72920;SDS011;61064;51.654;5.476;2023-07-31T14:20:35;14.98;;;4.93;;
72920;SDS011;61064;51.654;5.476;2023-07-31T14:23:01;14.70;;;4.47;;
72920;SDS011;61064;51.654;5.476;2023-07-31T14:25:27;11.10;;;4.80;;
72920;SDS011;61064;51.654;5.476;2023-07-31T14:27:53;12.93;;;4.47;;
72920;SDS011;61064;51.654;5.476;2023-07-31T14:30:18;12.90;;;4.23;;
72920;SDS011;61064;51.654;5.476;2023-07-31T14:32:44;13.23;;;4.63;;
72920;SDS011;61064;51.654;5.476;2023-07-31T14:35:09;12.77;;;4.87;;
72920;SDS011;61064;51.654;5.476;2023-07-31T14:37:38;13.13;;;5.18;;
72920;SDS011;61064;51.654;5.476;2023-07-31T14:40:05;12.75;;;4.57;;
72920;SDS011;61064;51.654;5.476;2023-07-31T14:42:33;11.33;;;4.30;;
72920;SDS011;61064;51.654;5.476;2023-07-31T14:48:17;14.05;;;4.85;;
72920;SDS011;61064;51.654;5.476;2023-07-31T14:50:47;13.43;;;5.20;;
72920;SDS011;61064;51.654;5.476;2023-07-31T14:53:19;12.67;;;4.83;;
72920;SDS011;61064;51.654;5.476;2023-07-31T14:58:37;12.43;;;4.35;;
72920;SDS011;61064;51.654;5.476;2023-07-31T15:01:03;11.83;;;4.17;;
72920;SDS011;61064;51.654;5.476;2023-07-31T15:03:40;9.90;;;3.60;;
72920;SDS011;61064;51.654;5.476;2023-07-31T15:06:12;10.80;;;3.83;;